Aérodrome :
LOGIN :

S'inscrire | Disclaimer

   EN    FR    IT 

 










Légende :    VFR   VFR Marginal   IFR   IFR Intensif   IFR Très Intensif
Visi : 
Plafond : 
>= 8 km
>= 3000ft
5 à 8 km
1000 à 3000 ft
1500m à 5 km
500 à 1000 ft
800 à 1500m
200 à 500 ft
< 800m
< 200 ft
Symboles :   Orages  Brouillard  Fortes neiges  Fortes précipitations  Vent > 20 kt
SIGMETs :   Divers  Orages  Givrage  Turbulence  Onde Orograph.  Cendres Volcan.






- Altitude de l'aérodrome : 122 ft
- Code IATA : TXL


EDDT - Berlin Tegel Int.

DERNIER METAR :
  • 011250Z 10005KT 060V140 9999 SCT022 16/12 Q1005 NOSIG

METARs EXPIRÉS :
  • 011220Z 10006KT 040V130 9999 BKN022 17/12 Q1005 NOSIG
  • 011150Z 09007KT 060V150 9999 FEW020 17/12 Q1006 TEMPO BKN010
  • 011120Z VRB03KT 9999 FEW020 16/11 Q1006 TEMPO BKN010
  • 011050Z 05004KT 340V100 9999 FEW014 15/11 Q1007 TEMPO BKN010
  • 011020Z 03004KT 330V080 9999 FEW014 15/11 Q1007 TEMPO BKN010

TAF TAF EDDT
Valide du 01 à 12h jusqu'au 02 à 12h UTC


011100Z 0112/0212 11004KT 9999 SCT005
TEMPO 0112/0116 BKN012
BECMG 0202/0205 2500 BR BKN002
BECMG 0206/0209 09010KT 8000 BKN015



MET'MAP, la Météo Aéronautique d'un coup d'oeil ! - Copyright ORBIFLY Décembre 2007 - Disclaimer

ORBIFLY MET'MAP TEAM :

Programmation & Développement : Alexandra Zaïnal
Sur une idée originale de : Baudouin d'Aumeries
Assistance à la programmation : Marc-Olivier Méhu
Soutien technique & logistique : Manuel Goepfert

Contact : metmap@orbifly.com




SOURCES & CREDITS :

   NOAA